Time;durP1;ratioP1;P1;durP2;ratioP2;P2;SDS_P1;SDS_P2;PMS_P1;PMS_P2;Temp;Humidity;BMP_temperature;BMP_pressure;BME280_temperature;BME280_humidity;BME280_pressure;Samples;Min_cycle;Max_cycle;Signal;HPM_P1;HPM_P2
2023/06/12 00:01:51;;;;;;;0.52;0.52;;;;;;;8.16;55.23;100268.75;5052393;28;20155;-82
2023/06/12 00:04:18;;;;;;;0.50;0.50;;;;;;;8.11;55.74;100268.53;5051892;28;20582;-82
2023/06/12 00:06:50;;;;;;;0.60;0.60;;;;;;;7.86;56.13;100245.81;5069842;28;20048;-82
2023/06/12 00:09:17;;;;;;;0.50;0.50;;;;;;;7.97;56.68;100277.53;5069778;28;20052;-82
2023/06/12 00:11:44;;;;;;;0.50;0.50;;;;;;;7.92;56.48;100274.59;5069933;28;20055;-83
2023/06/12 00:14:13;;;;;;;0.50;0.50;;;;;;;7.81;57.00;100249.09;5069731;28;20049;-82
2023/06/12 00:16:40;;;;;;;0.60;0.60;;;;;;;7.69;57.11;100253.34;5035865;28;20056;-82
2023/06/12 00:19:07;;;;;;;0.60;0.60;;;;;;;7.65;57.20;100250.22;5069499;28;20182;-82
2023/06/12 00:21:35;;;;;;;0.50;0.50;;;;;;;7.75;57.41;100256.09;5052046;28;20044;-81
2023/06/12 00:24:08;;;;;;;0.50;0.50;;;;;;;7.53;57.67;100238.34;5051679;28;20617;-82
2023/06/12 00:26:35;;;;;;;0.60;0.60;;;;;;;7.65;57.72;100273.59;5051955;28;20139;-83
2023/06/12 00:29:03;;;;;;;0.60;0.60;;;;;;;7.56;57.59;100256.75;5068163;28;20048;-81
2023/06/12 00:31:35;;;;;;;0.50;0.50;;;;;;;7.46;58.15;100256.25;5051621;28;20128;-83
2023/06/12 00:34:03;;;;;;;0.60;0.60;;;;;;;7.53;58.25;100279.47;5069361;28;20048;-83
2023/06/12 00:36:32;;;;;;;0.60;0.60;;;;;;;7.38;58.33;100260.72;5060314;28;20079;-81
2023/06/12 00:39:00;;;;;;;0.50;0.50;;;;;;;7.54;58.81;100282.97;5051607;28;20049;-82
2023/06/12 00:41:27;;;;;;;0.50;0.50;;;;;;;7.27;58.66;100255.91;5069465;28;20055;-81
2023/06/12 00:43:54;;;;;;;0.60;0.60;;;;;;;7.43;58.82;100275.44;5053519;28;20134;-82
2023/06/12 00:46:21;;;;;;;0.60;0.60;;;;;;;7.47;58.90;100288.31;5089510;28;20143;-82
2023/06/12 00:48:49;;;;;;;0.60;0.60;;;;;;;7.30;58.89;100249.31;5089853;28;20051;-82
2023/06/12 00:51:17;;;;;;;0.60;0.60;;;;;;;7.33;59.03;100279.28;5091591;28;20044;-82
2023/06/12 00:53:44;;;;;;;0.60;0.60;;;;;;;7.25;59.09;100262.47;5060762;28;20131;-82
2023/06/12 00:56:13;;;;;;;0.60;0.60;;;;;;;7.24;59.25;100283.13;5079661;28;20078;-82
2023/06/12 00:58:42;;;;;;;0.60;0.60;;;;;;;7.14;59.23;100259.28;5039160;28;20096;-82
2023/06/12 01:01:11;;;;;;;0.60;0.60;;;;;;;7.15;59.50;100266.31;5071639;28;20052;-82
2023/06/12 01:03:38;;;;;;;0.50;0.50;;;;;;;7.24;59.43;100285.81;5071838;28;20067;-82
2023/06/12 01:06:09;;;;;;;0.60;0.60;;;;;;;7.21;59.42;100283.50;5072674;28;20518;-82
2023/06/12 01:08:53;;;;;;;0.50;0.50;;;;;;;7.32;59.76;100299.13;5038906;28;20051;-81
2023/06/12 01:11:22;;;;;;;0.60;0.60;;;;;;;7.36;59.52;100311.13;5054123;28;20056;-82
2023/06/12 01:13:52;;;;;;;0.50;0.50;;;;;;;7.28;59.67;100303.19;5071448;28;20132;-81
2023/06/12 01:16:23;;;;;;;0.60;0.60;;;;;;;7.28;59.97;100307.75;5054517;28;20052;-83
2023/06/12 01:18:52;;;;;;;0.50;0.50;;;;;;;7.28;60.11;100319.31;5072507;28;20127;-81
2023/06/12 01:21:22;;;;;;;0.60;0.60;;;;;;;7.15;60.35;100297.69;5072500;28;20106;-82
2023/06/12 01:24:10;;;;;;;0.68;0.68;;;;;;;7.16;60.40;100299.34;5039108;28;20041;-82
2023/06/12 01:26:53;;;;;;;0.50;0.50;;;;;;;7.12;60.32;100288.19;5055065;28;20501;-82
2023/06/12 01:29:46;;;;;;;0.60;0.60;;;;;;;7.21;59.99;100283.50;5071232;28;20145;-83
2023/06/12 01:32:18;;;;;;;0.60;0.60;;;;;;;7.33;59.75;100310.69;5040229;28;20045;-82
2023/06/12 01:35:09;;;;;;;0.60;0.60;;;;;;;7.42;59.84;100314.91;5054853;28;20450;-82
2023/06/12 01:37:49;;;;;;;0.60;0.60;;;;;;;7.33;59.94;100298.09;5054674;28;20837;-81
2023/06/12 01:40:27;;;;;;;0.60;0.60;;;;;;;7.31;59.99;100297.44;5061647;28;20035;-81
2023/06/12 01:42:54;;;;;;;0.60;0.60;;;;;;;7.41;59.83;100328.53;5075576;28;20052;-82
2023/06/12 01:45:24;;;;;;;0.60;0.60;;;;;;;7.43;59.81;100313.88;5074985;28;20054;-81
2023/06/12 01:47:51;;;;;;;0.50;0.50;;;;;;;7.53;59.55;100332.38;5091557;28;20044;-82
2023/06/12 01:50:21;;;;;;;0.60;0.60;;;;;;;7.51;59.44;100329.88;5091446;28;20082;-81
2023/06/12 01:52:49;;;;;;;0.60;0.60;;;;;;;7.57;59.75;100339.00;5080818;28;20048;-81
2023/06/12 01:55:19;;;;;;;0.60;0.60;;;;;;;7.56;59.63;100337.34;5074930;28;20072;-81
2023/06/12 01:57:48;;;;;;;0.60;0.60;;;;;;;7.58;59.25;100308.44;5054278;28;20055;-82
2023/06/12 02:00:17;;;;;;;0.60;0.60;;;;;;;7.83;59.18;100343.81;5038076;28;20048;-82
2023/06/12 02:02:53;;;;;;;0.60;0.60;;;;;;;7.78;58.66;100320.19;5072084;28;20418;-82
2023/06/12 02:05:26;;;;;;;0.50;0.50;;;;;;;7.84;58.01;100312.38;5037539;28;20568;-81
2023/06/12 02:07:53;;;;;;;0.60;0.60;;;;;;;8.06;57.95;100323.94;5054176;28;20036;-81
2023/06/12 02:10:20;;;;;;;0.60;0.60;;;;;;;8.16;57.44;100316.34;5037292;28;20511;-81
2023/06/12 02:12:48;;;;;;;0.60;0.60;;;;;;;8.23;57.57;100320.75;5071533;28;20056;-82
2023/06/12 02:15:18;;;;;;;0.50;0.50;;;;;;;8.24;57.41;100317.00;5053566;28;20045;-82
2023/06/12 02:17:46;;;;;;;0.60;0.60;;;;;;;8.42;56.83;100321.91;5037471;28;20055;-82
2023/06/12 02:20:13;;;;;;;0.60;0.60;;;;;;;8.49;56.51;100326.50;5071477;28;20533;-82
2023/06/12 02:22:41;;;;;;;0.60;0.60;;;;;;;8.57;56.37;100335.22;5037368;28;20510;-82
2023/06/12 02:25:08;;;;;;;0.60;0.60;;;;;;;8.52;56.35;100318.84;5053444;28;20048;-81
2023/06/12 02:27:36;;;;;;;0.50;0.50;;;;;;;8.56;56.22;100320.13;5052987;28;20060;-81
2023/06/12 02:30:04;;;;;;;0.60;0.60;;;;;;;8.62;56.07;100322.00;5071974;28;20056;-82
2023/06/12 02:32:34;;;;;;;0.60;0.60;;;;;;;8.68;55.81;100328.44;5073675;28;20044;-82
2023/06/12 02:35:08;;;;;;;0.60;0.60;;;;;;;8.71;55.77;100316.44;5072871;28;20036;-82
2023/06/12 02:37:36;;;;;;;0.60;0.60;;;;;;;8.82;55.55;100330.19;5073454;28;20052;-82
2023/06/12 02:40:05;;;;;;;0.52;0.52;;;;;;;8.92;55.49;100326.28;5073283;28;20052;-82
2023/06/12 02:42:33;;;;;;;0.60;0.60;;;;;;;8.88;55.43;100317.78;5073420;28;20143;-82
2023/06/12 02:45:00;;;;;;;0.60;0.60;;;;;;;8.90;55.71;100308.47;5091463;28;20403;-82
2023/06/12 02:47:35;;;;;;;0.60;0.60;;;;;;;8.93;55.55;100304.53;5058093;28;20140;-82
2023/06/12 02:50:05;;;;;;;0.60;0.60;;;;;;;9.11;55.20;100326.38;5073090;28;20052;-82
2023/06/12 02:52:46;;;;;;;0.60;0.60;;;;;;;9.19;55.27;100330.72;5079428;28;20081;-82
2023/06/12 02:55:13;;;;;;;0.60;0.60;;;;;;;9.22;55.13;100327.63;5090789;28;20044;-82
2023/06/12 02:57:41;;;;;;;0.50;0.50;;;;;;;9.42;54.90;100349.22;5056811;28;20048;-82
2023/06/12 03:00:09;;;;;;;0.50;0.50;;;;;;;9.29;54.76;100309.63;5072706;28;20040;-81
2023/06/12 03:02:47;;;;;;;0.50;0.50;;;;;;;9.36;54.42;100317.69;5073252;28;20051;-81
2023/06/12 03:05:16;;;;;;;0.50;0.50;;;;;;;9.41;54.34;100300.94;5072960;28;20078;-82
2023/06/12 03:07:44;;;;;;;0.60;0.60;;;;;;;9.52;53.95;100319.16;5055995;28;20044;-82
2023/06/12 03:10:15;;;;;;;0.50;0.50;;;;;;;9.78;53.78;100331.84;5090515;28;20044;-82
2023/06/12 03:12:43;;;;;;;0.60;0.60;;;;;;;9.63;53.65;100307.78;5089872;28;20134;-82
2023/06/12 03:15:16;;;;;;;0.60;0.60;;;;;;;9.78;52.97;100315.69;5072909;28;20407;-82
2023/06/12 03:17:44;;;;;;;0.50;0.50;;;;;;;9.80;52.76;100301.97;5090532;28;20059;-82
2023/06/12 03:20:14;;;;;;;0.60;0.60;;;;;;;10.04;52.73;100320.22;5090416;28;20399;-82
2023/06/12 03:22:43;;;;;;;0.50;0.50;;;;;;;9.97;52.20;100319.41;5073289;28;20131;-82
2023/06/12 03:25:10;;;;;;;0.50;0.50;;;;;;;10.04;52.26;100319.41;5069477;28;20044;-82
2023/06/12 03:27:38;;;;;;;0.57;0.57;;;;;;;10.27;52.05;100335.97;5052543;28;20515;-82
2023/06/12 03:30:06;;;;;;;0.60;0.60;;;;;;;10.40;51.68;100352.16;5052148;28;20079;-83
2023/06/12 03:32:34;;;;;;;0.60;0.60;;;;;;;10.31;51.49;100323.75;5068392;28;20576;-82
2023/06/12 03:35:03;;;;;;;0.50;0.50;;;;;;;10.48;51.27;100345.75;5072650;28;20458;-82
2023/06/12 03:37:34;;;;;;;0.50;0.50;;;;;;;10.58;50.70;100351.53;5072465;28;20083;-81
2023/06/12 03:40:06;;;;;;;0.60;0.60;;;;;;;10.71;50.68;100342.56;5089199;28;20044;-81
2023/06/12 03:42:37;;;;;;;0.60;0.60;;;;;;;10.83;50.37;100346.22;5072369;28;20510;-81
2023/06/12 03:45:10;;;;;;;0.50;0.50;;;;;;;10.91;49.89;100349.72;5090189;28;20489;-82
2023/06/12 03:47:39;;;;;;;0.60;0.60;;;;;;;11.00;49.37;100353.88;5072349;28;20055;-83
2023/06/12 03:50:11;;;;;;;0.60;0.60;;;;;;;11.05;49.39;100344.06;5097590;28;20044;-83
2023/06/12 03:52:39;;;;;;;0.50;0.50;;;;;;;11.09;49.23;100349.03;5055821;28;20062;-82
2023/06/12 03:55:08;;;;;;;0.50;0.50;;;;;;;11.01;49.21;100320.38;5055622;28;20060;-82
2023/06/12 03:57:36;;;;;;;0.50;0.50;;;;;;;11.07;48.90;100322.25;5055397;28;20506;-81
2023/06/12 04:00:05;;;;;;;0.50;0.50;;;;;;;11.14;48.54;100330.31;5071903;28;20498;-82
2023/06/12 04:02:43;;;;;;;0.50;0.50;;;;;;;11.25;48.36;100335.03;5057057;28;20048;-82
2023/06/12 04:05:13;;;;;;;0.50;0.50;;;;;;;11.29;48.29;100330.84;5072112;28;20494;-82
2023/06/12 04:07:41;;;;;;;0.50;0.50;;;;;;;11.54;47.93;100349.81;5072260;28;20139;-82
2023/06/12 04:10:08;;;;;;;0.60;0.60;;;;;;;11.62;47.21;100354.13;5072065;28;20134;-81
2023/06/12 04:12:37;;;;;;;0.50;0.50;;;;;;;11.67;47.11;100357.88;5072248;28;20103;-83
2023/06/12 04:15:06;;;;;;;0.50;0.50;;;;;;;11.61;46.92;100337.09;5072064;28;20474;-82
2023/06/12 04:17:34;;;;;;;0.50;0.50;;;;;;;11.66;46.59;100333.72;5061254;28;20057;-82
2023/06/12 04:20:06;;;;;;;0.50;0.50;;;;;;;11.83;46.41;100345.66;5077606;28;20127;-82
2023/06/12 04:22:35;;;;;;;0.50;0.50;;;;;;;11.90;46.33;100348.34;5070734;28;20506;-82
2023/06/12 04:25:05;;;;;;;0.50;0.50;;;;;;;12.00;45.99;100362.22;5073061;28;20044;-81
2023/06/12 04:27:33;;;;;;;0.50;0.50;;;;;;;11.96;45.75;100331.25;5071107;28;20130;-82
2023/06/12 04:30:01;;;;;;;0.60;0.60;;;;;;;12.26;45.33;100365.75;5057653;28;20460;-83
2023/06/12 04:32:32;;;;;;;0.50;0.50;;;;;;;12.33;45.29;100359.22;5074548;28;20498;-82
2023/06/12 04:35:01;;;;;;;0.50;0.50;;;;;;;12.41;45.17;100349.16;5074012;28;20059;-82
2023/06/12 04:37:30;;;;;;;0.50;0.50;;;;;;;12.45;44.64;100348.47;5074577;28;20062;-84
2023/06/12 04:39:58;;;;;;;0.50;0.50;;;;;;;12.39;44.25;100327.72;5065502;28;20039;-83
2023/06/12 04:42:26;;;;;;;0.50;0.50;;;;;;;12.69;43.89;100354.06;5047827;28;20047;-82
2023/06/12 04:44:55;;;;;;;0.50;0.50;;;;;;;12.72;43.70;100348.19;5072253;28;20047;-82
2023/06/12 04:47:23;;;;;;;0.50;0.50;;;;;;;12.82;43.37;100348.50;5052748;28;20075;-82
2023/06/12 04:49:57;;;;;;;0.50;0.50;;;;;;;12.75;43.03;100343.13;5078098;28;20122;-83
2023/06/12 04:52:27;;;;;;;0.50;0.50;;;;;;;12.84;43.04;100335.56;5044958;28;20578;-82
2023/06/12 04:54:55;;;;;;;0.50;0.50;;;;;;;12.99;42.94;100343.28;5042139;28;20044;-82
2023/06/12 04:57:25;;;;;;;0.50;0.50;;;;;;;13.05;42.67;100330.72;5076815;28;20052;-82
2023/06/12 04:59:52;;;;;;;0.50;0.50;;;;;;;13.16;42.28;100344.28;5060262;28;20052;-80
2023/06/12 05:02:22;;;;;;;0.50;0.50;;;;;;;13.28;42.17;100341.69;5080944;28;20785;-81
2023/06/12 05:04:50;;;;;;;0.50;0.50;;;;;;;13.23;41.88;100326.06;4737873;28;9999687;-80
2023/06/12 05:07:18;;;;;;;0.50;0.50;;;;;;;13.40;41.55;100344.44;5089389;28;20052;-82
2023/06/12 05:09:55;;;;;;;0.50;0.50;;;;;;;13.46;41.45;100339.97;5071449;28;20643;-80
2023/06/12 05:12:23;;;;;;;0.40;0.40;;;;;;;13.44;41.57;100332.06;5089255;28;20055;-82
2023/06/12 05:14:50;;;;;;;0.50;0.50;;;;;;;13.64;41.09;100334.47;5062016;28;20146;-83
2023/06/12 05:17:18;;;;;;;0.40;0.40;;;;;;;13.54;40.63;100324.19;5064499;28;20138;-81
2023/06/12 05:19:46;;;;;;;0.50;0.50;;;;;;;13.53;40.20;100314.41;5076357;28;20063;-81
2023/06/12 05:22:16;;;;;;;0.50;0.50;;;;;;;13.67;40.30;100323.16;5071466;28;20487;-83
2023/06/12 05:24:46;;;;;;;0.50;0.50;;;;;;;13.76;40.24;100318.22;5081974;28;20740;-83
2023/06/12 05:27:14;;;;;;;0.50;0.50;;;;;;;13.78;39.66;100316.13;5068601;28;20079;-83
2023/06/12 05:29:41;;;;;;;0.50;0.50;;;;;;;13.82;39.92;100323.56;5061920;28;20055;-83
2023/06/12 05:32:10;;;;;;;0.47;0.47;;;;;;;13.81;39.84;100302.91;5069716;28;20130;-83
2023/06/12 05:34:38;;;;;;;0.50;0.50;;;;;;;14.09;39.51;100331.25;5077995;28;20499;-83
2023/06/12 05:37:05;;;;;;;0.50;0.50;;;;;;;14.09;39.03;100310.34;5061441;28;20201;-84
2023/06/12 05:39:33;;;;;;;0.50;0.50;;;;;;;14.02;38.19;100303.38;5076020;28;20522;-82
2023/06/12 05:42:01;;;;;;;0.50;0.50;;;;;;;14.09;38.13;100314.97;5063192;28;20056;-83
2023/06/12 05:44:28;;;;;;;0.50;0.50;;;;;;;14.20;38.44;100329.59;5055086;28;20056;-81
2023/06/12 05:46:59;;;;;;;0.50;0.50;;;;;;;14.20;38.35;100305.16;5055012;28;20059;-81
2023/06/12 05:49:27;;;;;;;0.50;0.50;;;;;;;14.30;38.51;100310.81;5074133;28;20075;-81
2023/06/12 05:51:55;;;;;;;0.50;0.50;;;;;;;14.46;38.16;100320.16;5063014;28;20133;-80
2023/06/12 05:54:22;;;;;;;0.50;0.50;;;;;;;14.59;38.42;100321.81;5072008;28;20110;-79
2023/06/12 05:56:52;;;;;;;0.40;0.40;;;;;;;14.57;37.33;100303.03;5054018;28;20116;-80
2023/06/12 05:59:23;;;;;;;0.50;0.50;;;;;;;14.52;37.28;100314.56;5036709;28;20059;-81
2023/06/12 06:01:50;;;;;;;0.50;0.50;;;;;;;14.47;36.88;100303.59;5079599;28;20076;-81
2023/06/12 06:04:18;;;;;;;0.50;0.50;;;;;;;14.51;36.93;100304.78;5068963;28;20558;-81
2023/06/12 06:06:55;;;;;;;0.40;0.40;;;;;;;14.51;36.90;100299.34;5053538;28;20052;-81
2023/06/12 06:09:26;;;;;;;0.50;0.50;;;;;;;14.67;36.90;100319.53;5053661;28;20101;-79
2023/06/12 06:11:53;;;;;;;0.50;0.50;;;;;;;14.67;36.31;100311.38;5075293;28;20055;-80
2023/06/12 06:14:24;;;;;;;0.50;0.50;;;;;;;14.63;36.33;100310.22;5061791;28;20071;-82
2023/06/12 06:16:51;;;;;;;0.40;0.40;;;;;;;14.66;35.89;100312.47;5057714;28;20048;-82
2023/06/12 06:19:28;;;;;;;0.50;0.50;;;;;;;14.47;36.37;100294.63;5055512;28;21803;-80
2023/06/12 06:21:59;;;;;;;0.50;0.50;;;;;;;14.49;35.75;100284.34;5058782;28;20076;-82
2023/06/12 06:24:31;;;;;;;0.40;0.40;;;;;;;14.68;35.71;100306.78;5059308;28;20070;-82
2023/06/12 06:26:58;;;;;;;0.50;0.50;;;;;;;14.61;35.55;100277.03;5089934;28;20565;-81
2023/06/12 06:29:26;;;;;;;0.47;0.47;;;;;;;14.97;35.25;100306.84;5084512;28;20054;-81
2023/06/12 06:31:59;;;;;;;0.50;0.50;;;;;;;14.94;35.05;100295.38;5060955;28;20058;-82
2023/06/12 06:34:28;;;;;;;0.40;0.40;;;;;;;15.01;35.01;100297.94;5072883;28;20049;-82
2023/06/12 06:36:56;;;;;;;0.40;0.40;;;;;;;14.87;34.85;100288.44;5070768;28;20155;-83
2023/06/12 06:42:09;;;;;;;0.50;0.50;;;;;;;15.11;34.72;100289.97;5055680;28;20045;-82
2023/06/12 06:45:06;;;;;;;0.50;0.50;;;;;;;15.34;34.53;100294.50;5047586;28;20044;-82
2023/06/12 06:47:35;;;;;;;0.45;0.45;;;;;;;15.30;34.57;100281.63;5057534;28;20089;-81
2023/06/12 06:50:08;;;;;;;0.50;0.50;;;;;;;15.35;34.58;100284.44;5043349;28;20055;-81
2023/06/12 06:52:36;;;;;;;0.47;0.47;;;;;;;15.43;34.43;100297.63;5060864;28;20074;-80
2023/06/12 06:55:04;;;;;;;0.47;0.47;;;;;;;15.50;34.24;100301.03;5053323;28;20050;-79
2023/06/12 06:57:54;;;;;;;0.50;0.50;;;;;;;15.57;33.82;100290.81;5034739;28;20055;-81
2023/06/12 07:00:22;;;;;;;0.50;0.50;;;;;;;15.69;33.80;100296.19;5075192;28;20051;-78
2023/06/12 07:02:50;;;;;;;0.40;0.40;;;;;;;15.72;33.55;100290.28;4717784;28;9999976;-81
2023/06/12 07:08:09;;;;;;;0.40;0.40;;;;;;;15.78;33.72;100272.94;5063105;28;20638;-81
2023/06/12 07:10:39;;;;;;;0.40;0.40;;;;;;;15.84;33.55;100283.91;5058502;28;20049;-80
2023/06/12 07:13:17;;;;;;;0.40;0.40;;;;;;;15.84;33.24;100273.84;5051120;28;20074;-80
2023/06/12 07:15:54;;;;;;;0.50;0.50;;;;;;;16.01;33.47;100285.56;5059447;28;20109;-80
2023/06/12 07:18:22;;;;;;;0.40;0.40;;;;;;;15.89;33.36;100276.66;5063902;28;20052;-81
2023/06/12 07:20:52;;;;;;;0.40;0.40;;;;;;;15.93;33.86;100277.00;5077391;28;20131;-82
2023/06/12 07:23:20;;;;;;;0.40;0.40;;;;;;;16.03;33.39;100277.97;5034131;28;20056;-81
2023/06/12 07:25:50;;;;;;;0.50;0.50;;;;;;;16.06;33.21;100267.66;5071911;28;20040;-79
2023/06/12 07:28:17;;;;;;;0.40;0.40;;;;;;;16.23;33.05;100271.16;5075756;28;20072;-80
2023/06/12 07:30:49;;;;;;;0.50;0.50;;;;;;;16.38;32.89;100270.53;5061288;28;20052;-79
2023/06/12 07:33:17;;;;;;;0.50;0.50;;;;;;;16.35;33.02;100249.25;5052184;28;20515;-81
2023/06/12 07:35:46;;;;;;;0.40;0.40;;;;;;;16.40;32.38;100254.75;5060217;28;20564;-81
2023/06/12 07:38:17;;;;;;;0.50;0.50;;;;;;;16.56;32.66;100277.56;5059771;28;20048;-81
2023/06/12 07:40:45;;;;;;;0.40;0.40;;;;;;;16.59;32.76;100271.63;5088775;28;20048;-81
2023/06/12 07:43:12;;;;;;;0.40;0.40;;;;;;;16.82;32.46;100265.94;5047088;28;20526;-82
2023/06/12 07:45:40;;;;;;;0.50;0.50;;;;;;;16.92;32.34;100276.16;5054800;28;20127;-83
2023/06/12 07:48:10;;;;;;;0.50;0.50;;;;;;;16.94;32.06;100252.19;5070529;28;20048;-83
2023/06/12 07:50:42;;;;;;;0.50;0.50;;;;;;;17.17;32.24;100256.50;5040325;28;20525;-82
2023/06/12 07:53:10;;;;;;;0.50;0.50;;;;;;;17.38;31.83;100243.88;5048661;28;20051;-80
2023/06/12 07:55:57;;;;;;;0.50;0.50;;;;;;;17.55;31.71;100266.41;5052771;28;20052;-82
2023/06/12 07:58:30;;;;;;;0.50;0.50;;;;;;;17.71;31.54;100256.44;5052484;28;20060;-81
2023/06/12 08:01:00;;;;;;;0.50;0.50;;;;;;;17.73;31.20;100248.81;5014835;28;20136;-80
2023/06/12 08:03:28;;;;;;;0.50;0.50;;;;;;;17.79;31.03;100257.84;5031826;28;20052;-82
2023/06/12 08:05:59;;;;;;;0.60;0.60;;;;;;;17.91;30.81;100258.53;5020202;28;20427;-81
2023/06/12 08:08:41;;;;;;;0.60;0.60;;;;;;;18.00;30.17;100268.94;5034888;28;20427;-81
2023/06/12 08:11:09;;;;;;;0.60;0.60;;;;;;;18.14;30.40;100262.78;5034574;28;20056;-82
2023/06/12 08:13:44;;;;;;;0.60;0.60;;;;;;;18.40;30.08;100263.72;5011446;28;20048;-80
2023/06/12 08:16:13;;;;;;;0.50;0.50;;;;;;;18.60;30.01;100251.25;4994975;28;20053;-80
2023/06/12 08:18:43;;;;;;;0.50;0.50;;;;;;;18.64;29.84;100252.38;5011458;28;20093;-81
2023/06/12 08:21:11;;;;;;;0.50;0.50;;;;;;;18.51;29.45;100261.88;4978786;28;20060;-81
2023/06/12 08:23:38;;;;;;;0.50;0.50;;;;;;;18.68;28.89;100258.09;5011596;28;20508;-81
2023/06/12 08:26:08;;;;;;;0.60;0.60;;;;;;;18.76;28.45;100243.94;4994684;28;20069;-81
2023/06/12 08:29:00;;;;;;;0.60;0.60;;;;;;;18.94;28.69;100261.78;4995114;28;20050;-81
2023/06/12 08:31:33;;;;;;;0.50;0.50;;;;;;;19.19;28.33;100241.84;5004771;28;20653;-81
2023/06/12 08:34:01;;;;;;;0.50;0.50;;;;;;;19.32;28.03;100257.75;5014108;28;20480;-81
2023/06/12 08:36:30;;;;;;;0.50;0.50;;;;;;;19.57;27.96;100251.50;5043087;28;20175;-81
2023/06/12 08:38:57;;;;;;;0.50;0.50;;;;;;;19.48;27.30;100245.72;5051037;28;20049;-81
2023/06/12 08:41:25;;;;;;;0.50;0.50;;;;;;;19.41;27.15;100247.91;5052814;28;20053;-82
2023/06/12 08:44:22;;;;;;;0.50;0.50;;;;;;;19.79;27.17;100253.13;5051118;28;20059;-82
2023/06/12 08:46:55;;;;;;;0.50;0.50;;;;;;;20.06;27.12;100255.56;5075269;28;20044;-81
2023/06/12 08:49:29;;;;;;;0.50;0.50;;;;;;;20.11;26.71;100250.09;5075413;28;20044;-81
2023/06/12 08:51:57;;;;;;;0.50;0.50;;;;;;;20.11;27.08;100230.91;5093525;28;20059;-80
2023/06/12 08:54:25;;;;;;;0.50;0.50;;;;;;;19.97;27.23;100232.56;5093083;28;20097;-82
2023/06/12 08:56:59;;;;;;;0.50;0.50;;;;;;;19.83;27.78;100235.06;5092990;28;20154;-81
2023/06/12 08:59:29;;;;;;;0.50;0.50;;;;;;;20.00;27.36;100237.47;5093191;28;20131;-81
2023/06/12 09:01:58;;;;;;;0.60;0.60;;;;;;;20.57;26.78;100225.28;5075673;28;20074;-82
2023/06/12 09:05:14;;;;;;;0.60;0.60;;;;;;;21.24;25.92;100227.63;5077492;28;20071;-81
2023/06/12 09:07:46;;;;;;;0.60;0.60;;;;;;;21.27;25.49;100225.16;4994577;28;20046;-80
2023/06/12 09:10:16;;;;;;;0.50;0.50;;;;;;;21.35;25.64;100219.03;5009581;28;20060;-81
2023/06/12 09:12:45;;;;;;;0.60;0.60;;;;;;;21.42;25.40;100211.31;4994290;28;20046;-80
2023/06/12 09:15:16;;;;;;;0.60;0.60;;;;;;;22.05;24.72;100224.19;5010144;28;20578;-81
2023/06/12 09:17:49;;;;;;;0.60;0.60;;;;;;;22.27;24.52;100201.69;4994460;28;20536;-82
2023/06/12 09:20:24;;;;;;;0.60;0.60;;;;;;;22.32;24.46;100222.81;4978063;28;20145;-81
2023/06/12 09:23:10;;;;;;;0.60;0.60;;;;;;;22.11;24.33;100208.47;4996066;28;20171;-80
2023/06/12 09:25:43;;;;;;;0.60;0.60;;;;;;;22.34;23.67;100214.28;5024648;28;20136;-82
2023/06/12 09:28:36;;;;;;;0.60;0.60;;;;;;;22.87;23.29;100211.38;5017731;28;20053;-81
2023/06/12 09:31:04;;;;;;;0.60;0.60;;;;;;;23.24;23.06;100205.03;5030160;28;20053;-81
2023/06/12 09:33:41;;;;;;;0.60;0.60;;;;;;;23.25;22.77;100217.72;5030235;28;20064;-81
2023/06/12 09:36:12;;;;;;;0.60;0.60;;;;;;;23.56;22.88;100211.69;5020805;28;20093;-81
2023/06/12 09:38:39;;;;;;;0.60;0.60;;;;;;;23.10;22.65;100198.69;4994113;28;20061;-81
2023/06/12 09:41:08;;;;;;;0.60;0.60;;;;;;;23.12;23.12;100202.78;5010781;28;20085;-81
2023/06/12 09:43:36;;;;;;;0.60;0.60;;;;;;;23.22;22.85;100192.69;5060583;28;20052;-80
2023/06/12 09:46:06;;;;;;;0.60;0.60;;;;;;;23.16;22.25;100205.72;5092377;28;20086;-80
2023/06/12 09:48:38;;;;;;;0.68;0.68;;;;;;;23.32;22.32;100195.28;5092835;28;20126;-81
2023/06/12 09:51:07;;;;;;;0.60;0.60;;;;;;;23.52;22.28;100185.84;5092233;28;20510;-82
2023/06/12 09:53:39;;;;;;;0.60;0.60;;;;;;;23.76;22.38;100194.84;5076349;28;20056;-81
2023/06/12 09:56:08;;;;;;;0.60;0.60;;;;;;;23.83;22.11;100193.63;5071905;28;20533;-80
2023/06/12 09:58:37;;;;;;;0.60;0.60;;;;;;;24.41;21.59;100182.81;5078730;28;20052;-82
2023/06/12 10:01:06;;;;;;;0.60;0.60;;;;;;;24.77;21.15;100179.28;5057452;28;20048;-81
2023/06/12 10:03:37;;;;;;;0.60;0.60;;;;;;;25.01;20.81;100183.72;5073962;28;20048;-81
2023/06/12 10:06:09;;;;;;;0.60;0.60;;;;;;;25.38;20.46;100181.75;5091671;28;20655;-81
2023/06/12 10:08:40;;;;;;;0.60;0.60;;;;;;;25.40;21.03;100185.81;5057754;28;20510;-81
2023/06/12 10:11:08;;;;;;;0.60;0.60;;;;;;;25.53;20.78;100173.06;5091241;28;20468;-82
2023/06/12 10:13:38;;;;;;;0.60;0.60;;;;;;;25.43;20.82;100174.13;5089439;28;20143;-81
2023/06/12 10:16:06;;;;;;;0.50;0.50;;;;;;;25.17;21.22;100184.19;5071344;28;20085;-81
2023/06/12 10:18:34;;;;;;;0.60;0.60;;;;;;;25.19;21.13;100185.50;5074312;28;20502;-80
2023/06/12 10:21:02;;;;;;;0.60;0.60;;;;;;;24.99;21.09;100177.69;5068926;28;20054;-81
2023/06/12 10:23:30;;;;;;;0.60;0.60;;;;;;;25.11;21.30;100190.94;5077128;28;20048;-82
2023/06/12 10:26:01;;;;;;;0.60;0.60;;;;;;;25.07;21.30;100174.19;5081066;28;20075;-82
2023/06/12 10:28:31;;;;;;;0.60;0.60;;;;;;;25.49;20.67;100183.91;5073726;28;20488;-82
2023/06/12 10:31:11;;;;;;;0.60;0.60;;;;;;;25.66;20.39;100172.16;5084847;28;20117;-81
2023/06/12 10:33:57;;;;;;;0.60;0.60;;;;;;;26.15;19.92;100172.22;5074910;28;20079;-82
2023/06/12 10:36:24;;;;;;;0.60;0.60;;;;;;;26.69;19.62;100167.34;5080687;28;20048;-81
2023/06/12 10:39:03;;;;;;;0.50;0.50;;;;;;;26.90;19.01;100167.50;5092013;28;20105;-82
2023/06/12 10:41:32;;;;;;;0.50;0.50;;;;;;;26.93;19.07;100161.31;5065942;28;20063;-81
2023/06/12 10:43:59;;;;;;;0.50;0.50;;;;;;;26.90;19.52;100159.19;5069321;28;20044;-81
2023/06/12 10:46:44;;;;;;;0.50;0.50;;;;;;;26.76;19.30;100159.38;5062570;28;20090;-81
2023/06/12 10:49:13;;;;;;;0.60;0.60;;;;;;;26.59;20.10;100154.63;5052941;28;20060;-81
2023/06/12 10:51:53;;;;;;;0.60;0.60;;;;;;;27.32;19.04;100162.28;5077308;28;20055;-81
2023/06/12 10:54:25;;;;;;;0.60;0.60;;;;;;;27.15;18.83;100153.97;5078029;28;20135;-82
2023/06/12 10:56:58;;;;;;;0.60;0.60;;;;;;;27.03;19.10;100141.59;5061512;28;20049;-81
2023/06/12 10:59:30;;;;;;;0.60;0.60;;;;;;;27.11;18.89;100131.63;5062761;28;20635;-81
2023/06/12 11:01:58;;;;;;;0.60;0.60;;;;;;;26.82;18.99;100146.16;5082043;28;20075;-81
2023/06/12 11:04:27;;;;;;;0.60;0.60;;;;;;;26.84;18.75;100141.13;5081188;28;20052;-82
2023/06/12 11:06:54;;;;;;;0.60;0.60;;;;;;;27.17;19.20;100141.41;5070763;28;20048;-82
2023/06/12 11:09:25;;;;;;;0.50;0.50;;;;;;;27.81;18.81;100137.03;5079328;28;20709;-81
2023/06/12 11:11:54;;;;;;;0.50;0.50;;;;;;;28.36;17.97;100140.84;5073016;28;20048;-81
2023/06/12 11:14:26;;;;;;;0.50;0.50;;;;;;;28.01;18.03;100155.72;5085872;28;20063;-81
2023/06/12 11:16:58;;;;;;;0.60;0.60;;;;;;;27.67;18.03;100160.25;5063500;28;20044;-83
2023/06/12 11:19:27;;;;;;;0.60;0.60;;;;;;;27.73;18.38;100158.09;5075926;28;20057;-82
2023/06/12 11:21:55;;;;;;;0.50;0.50;;;;;;;27.62;18.17;100138.22;5089619;28;20052;-81
2023/06/12 11:24:23;;;;;;;0.50;0.50;;;;;;;27.76;18.27;100137.22;5084452;28;20056;-82
2023/06/12 11:26:51;;;;;;;0.50;0.50;;;;;;;28.31;17.90;100141.88;5074083;28;20053;-81
2023/06/12 11:29:21;;;;;;;0.50;0.50;;;;;;;28.17;17.75;100141.28;5070886;28;20399;-83
2023/06/12 11:31:50;;;;;;;0.50;0.50;;;;;;;28.59;17.35;100135.81;5070841;28;20061;-82
2023/06/12 11:34:17;;;;;;;0.50;0.50;;;;;;;29.11;17.08;100119.53;5053770;28;20130;-82
2023/06/12 11:36:45;;;;;;;0.50;0.50;;;;;;;29.00;16.88;100123.88;5074938;28;20044;-81
2023/06/12 11:39:17;;;;;;;0.50;0.50;;;;;;;28.61;17.13;100120.47;5074053;28;20087;-82
2023/06/12 11:41:57;;;;;;;0.50;0.50;;;;;;;28.08;17.74;100125.50;5077811;28;20048;-81
2023/06/12 11:44:30;;;;;;;0.50;0.50;;;;;;;27.77;18.07;100124.97;5076469;28;20079;-82
2023/06/12 11:47:00;;;;;;;0.50;0.50;;;;;;;28.25;18.10;100123.75;5071216;28;20062;-83
2023/06/12 11:49:31;;;;;;;0.50;0.50;;;;;;;28.96;17.59;100097.91;5070773;28;20143;-82